createdAt,value
2022-08-20T00:01:05.432Z,98223.59
2022-08-20T00:03:35.754Z,98218.56
2022-08-20T00:06:16.339Z,98222.00
2022-08-20T00:08:44.188Z,98219.16
2022-08-20T00:11:14.149Z,98223.53
2022-08-20T00:13:50.518Z,98214.34
2022-08-20T00:16:19.216Z,98214.56
2022-08-20T00:18:46.745Z,98213.72
2022-08-20T00:21:19.037Z,98222.00
2022-08-20T00:23:49.005Z,98212.50
2022-08-20T00:26:16.952Z,98215.53
2022-08-20T00:28:43.539Z,98213.06
2022-08-20T00:31:12.575Z,98215.75
2022-08-20T00:33:39.878Z,98215.16
2022-08-20T00:36:09.623Z,98216.13
2022-08-20T00:38:38.455Z,98215.25
2022-08-20T00:41:07.131Z,98210.78
2022-08-20T00:43:40.005Z,98210.78
2022-08-20T00:46:31.669Z,98211.81
2022-08-20T00:49:02.377Z,98210.88
2022-08-20T00:51:34.841Z,98204.69
2022-08-20T00:54:06.928Z,98209.81
2022-08-20T00:56:35.201Z,98204.59
2022-08-20T00:59:06.027Z,98197.56
2022-08-20T01:01:41.982Z,98203.75
2022-08-20T01:04:21.289Z,98197.25
2022-08-20T01:06:48.786Z,98195.75
2022-08-20T01:09:15.495Z,98197.66
2022-08-20T01:11:42.545Z,98192.50
2022-08-20T01:14:35.181Z,98190.03
2022-08-20T01:17:07.733Z,98194.41
2022-08-20T01:19:44.730Z,98197.94
2022-08-20T01:22:34.638Z,98203.47
2022-08-20T01:25:08.556Z,98210.75
2022-08-20T01:27:42.487Z,98203.72
2022-08-20T01:30:10.262Z,98203.19
2022-08-20T01:32:36.865Z,98206.88
2022-08-20T01:35:04.748Z,98201.44
2022-08-20T01:37:31.719Z,98207.56
2022-08-20T01:39:58.753Z,98212.19
2022-08-20T01:42:59.106Z,98219.91
2022-08-20T01:45:30.328Z,98213.91
2022-08-20T01:47:58.242Z,98224.75
2022-08-20T01:50:29.011Z,98220.47
2022-08-20T01:53:11.582Z,98223.56
2022-08-20T01:55:38.806Z,98220.59
2022-08-20T01:58:05.401Z,98220.28
2022-08-20T02:00:32.679Z,98228.84
2022-08-20T02:02:59.377Z,98223.97
2022-08-20T02:05:30.419Z,98229.31
2022-08-20T02:07:57.491Z,98235.50
2022-08-20T02:10:25.295Z,98237.59
2022-08-20T02:12:53.095Z,98235.88
2022-08-20T02:15:19.815Z,98235.78
2022-08-20T02:18:08.143Z,98242.72
2022-08-20T02:20:36.151Z,98237.38
2022-08-20T02:23:03.844Z,98237.03
2022-08-20T02:25:32.604Z,98248.28
2022-08-20T02:28:02.032Z,98232.84
2022-08-20T02:30:33.582Z,98242.16
2022-08-20T02:33:03.336Z,98240.56
2022-08-20T02:35:30.076Z,98242.38
2022-08-20T02:37:56.959Z,98243.03
2022-08-20T02:40:30.738Z,98235.63
2022-08-20T02:42:59.213Z,98235.69
2022-08-20T02:45:26.687Z,98231.16
2022-08-20T02:47:54.429Z,98236.47
2022-08-20T02:50:24.040Z,98234.34
2022-08-20T02:52:51.971Z,98236.06
2022-08-20T02:55:28.006Z,98229.44
2022-08-20T02:58:01.081Z,98231.22
2022-08-20T03:00:38.138Z,98228.84
2022-08-20T03:03:10.648Z,98238.75
2022-08-20T03:05:39.187Z,98227.31
2022-08-20T03:08:08.609Z,98217.81
2022-08-20T03:10:38.770Z,98226.19
2022-08-20T03:13:06.814Z,98223.81
2022-08-20T03:15:34.686Z,98229.31
2022-08-20T03:18:01.663Z,98225.81
2022-08-20T03:20:29.914Z,98226.66
2022-08-20T03:22:57.538Z,98233.59
2022-08-20T03:25:24.394Z,98236.84
2022-08-20T03:27:54.325Z,98228.47
2022-08-20T03:30:23.925Z,98233.16
2022-08-20T03:32:50.488Z,98224.56
2022-08-20T03:35:18.833Z,98233.91
2022-08-20T03:37:48.219Z,98229.09
2022-08-20T03:40:19.824Z,98227.50
2022-08-20T03:42:46.609Z,98225.47
2022-08-20T03:45:17.197Z,98231.16
2022-08-20T03:47:47.533Z,98234.16
2022-08-20T03:50:22.644Z,98234.00
2022-08-20T03:52:53.916Z,98234.34
2022-08-20T03:55:22.676Z,98238.97
2022-08-20T03:57:52.992Z,98238.22
2022-08-20T04:00:36.856Z,98236.00
2022-08-20T04:03:04.850Z,98245.13
2022-08-20T04:05:33.639Z,98246.06
2022-08-20T04:08:03.083Z,98241.50
2022-08-20T04:10:31.309Z,98250.16
2022-08-20T04:12:57.936Z,98244.28
2022-08-20T04:15:24.785Z,98247.91
2022-08-20T04:17:53.545Z,98250.50
2022-08-20T04:20:23.925Z,98239.78
2022-08-20T04:22:59.185Z,98240.09
2022-08-20T04:25:28.587Z,98246.34
2022-08-20T04:27:56.927Z,98237.97
2022-08-20T04:30:23.876Z,98234.53
2022-08-20T04:32:50.390Z,98237.25
2022-08-20T04:35:18.371Z,98234.53
2022-08-20T04:37:46.961Z,98234.69
2022-08-20T04:40:36.414Z,98244.59
2022-08-20T04:43:05.220Z,98243.81
2022-08-20T04:45:34.896Z,98236.69
2022-08-20T04:48:05.957Z,98247.44
2022-08-20T04:50:37.210Z,98246.72
2022-08-20T04:53:10.273Z,98256.16
2022-08-20T04:55:39.426Z,98256.31
2022-08-20T04:58:09.772Z,98251.78
2022-08-20T05:00:36.693Z,98257.88
2022-08-20T05:03:03.733Z,98266.47
2022-08-20T05:05:30.959Z,98260.53
2022-08-20T05:07:58.421Z,98271.94
2022-08-20T05:10:25.693Z,98273.31
2022-08-20T05:12:56.565Z,98278.38
2022-08-20T05:15:26.191Z,98282.22
2022-08-20T05:18:02.663Z,98292.97
2022-08-20T05:20:31.514Z,98291.41
2022-08-20T05:23:02.920Z,98286.16
2022-08-20T05:25:29.918Z,98283.06
2022-08-20T05:28:00.717Z,98286.00
2022-08-20T05:30:34.174Z,98272.25
2022-08-20T05:33:02.050Z,98283.94
2022-08-20T05:35:29.299Z,98283.25
2022-08-20T05:37:56.581Z,98285.75
2022-08-20T05:40:24.842Z,98278.91
2022-08-20T05:42:52.145Z,98286.22
2022-08-20T05:45:18.842Z,98272.25
2022-08-20T05:47:45.721Z,98285.75
2022-08-20T05:50:19.810Z,98293.38
2022-08-20T05:52:50.056Z,98287.31
2022-08-20T05:55:16.851Z,98290.34
2022-08-20T05:57:43.447Z,98293.75
2022-08-20T06:00:12.550Z,98281.81
2022-08-20T06:02:58.793Z,98294.97
2022-08-20T06:05:25.736Z,98302.75
2022-08-20T06:07:54.843Z,98301.53
2022-08-20T06:10:26.363Z,98304.22
2022-08-20T06:12:53.445Z,98296.78
2022-08-20T06:15:20.865Z,98304.78
2022-08-20T06:17:58.204Z,98308.78
2022-08-20T06:20:26.249Z,98304.69
2022-08-20T06:22:52.838Z,98313.16
2022-08-20T06:25:19.883Z,98315.69
2022-08-20T06:27:46.716Z,98316.53
2022-08-20T06:30:15.519Z,98318.25
2022-08-20T06:32:42.201Z,98314.84
2022-08-20T06:35:11.055Z,98313.16
2022-08-20T06:37:40.332Z,98319.53
2022-08-20T06:40:16.166Z,98321.78
2022-08-20T06:42:48.248Z,98327.88
2022-08-20T06:45:19.386Z,98316.03
2022-08-20T06:47:47.056Z,98329.50
2022-08-20T06:50:18.507Z,98321.34
2022-08-20T06:52:52.865Z,98321.56
2022-08-20T06:55:20.848Z,98319.09
2022-08-20T06:57:48.493Z,98323.38
2022-08-20T07:00:19.294Z,98319.50
2022-08-20T07:02:47.178Z,98325.28
2022-08-20T07:05:14.181Z,98319.81
2022-08-20T07:07:45.181Z,98319.31
2022-08-20T07:10:17.603Z,98319.41
2022-08-20T07:12:46.554Z,98318.09
2022-08-20T07:15:14.881Z,98323.38
2022-08-20T07:17:41.731Z,98317.81
2022-08-20T07:20:12.647Z,98325.59
2022-08-20T07:22:39.301Z,98324.16
2022-08-20T07:25:08.152Z,98325.94
2022-08-20T07:27:35.310Z,98325.81
2022-08-20T07:30:20.524Z,98324.59
2022-08-20T07:32:47.597Z,98325.66
2022-08-20T07:35:16.534Z,98327.66
2022-08-20T07:37:46.682Z,98323.78
2022-08-20T07:40:17.153Z,98333.09
2022-08-20T07:42:43.797Z,98326.41
2022-08-20T07:45:13.357Z,98330.53
2022-08-20T07:47:41.901Z,98329.13
2022-08-20T07:50:11.206Z,98329.47
2022-08-20T07:52:37.882Z,98322.53
2022-08-20T07:55:07.137Z,98321.06
2022-08-20T07:57:33.999Z,98328.28
2022-08-20T08:00:00.619Z,98325.34
2022-08-20T08:02:27.914Z,98330.47
2022-08-20T08:04:55.144Z,98342.16
2022-08-20T08:07:23.304Z,98333.34
2022-08-20T08:09:50.685Z,98342.44
2022-08-20T08:12:17.597Z,98336.56
2022-08-20T08:14:46.003Z,98342.56
2022-08-20T08:17:13.505Z,98346.63
2022-08-20T08:19:45.866Z,98338.66
2022-08-20T08:22:16.480Z,98348.78
2022-08-20T08:24:57.300Z,98354.94
2022-08-20T08:27:24.289Z,98348.13
2022-08-20T08:29:50.784Z,98355.25
2022-08-20T08:32:17.537Z,98355.56
2022-08-20T08:34:48.240Z,98354.50
2022-08-20T08:37:14.804Z,98365.31
2022-08-20T08:39:41.341Z,98348.41
2022-08-20T08:42:23.331Z,98354.16
2022-08-20T08:44:50.883Z,98357.28
2022-08-20T08:47:27.194Z,98349.69
2022-08-20T08:49:54.239Z,98350.47
2022-08-20T08:52:24.472Z,98349.50
2022-08-20T08:54:56.962Z,98356.06
2022-08-20T08:57:24.321Z,98355.22
2022-08-20T09:00:04.186Z,98349.81
2022-08-20T09:02:33.809Z,98357.50
2022-08-20T09:05:02.817Z,98361.81
2022-08-20T09:07:33.222Z,98358.78
2022-08-20T09:10:01.351Z,98361.84
2022-08-20T09:12:28.137Z,98371.63
2022-08-20T09:14:54.921Z,98369.06
2022-08-20T09:17:23.009Z,98369.00
2022-08-20T09:19:50.472Z,98364.06
2022-08-20T09:22:20.570Z,98368.72
2022-08-20T09:24:47.723Z,98366.09
2022-08-20T09:27:15.052Z,98361.44
2022-08-20T09:29:41.648Z,98352.47
2022-08-20T09:32:12.042Z,98351.56
2022-08-20T09:34:44.936Z,98358.38
2022-08-20T09:37:12.360Z,98361.63
2022-08-20T09:39:39.550Z,98352.94
2022-08-20T09:42:14.501Z,98352.28
2022-08-20T09:44:41.889Z,98352.31
2022-08-20T09:47:08.923Z,98354.28
2022-08-20T09:49:37.461Z,98354.81
2022-08-20T09:52:06.835Z,98343.41
2022-08-20T09:54:34.807Z,98349.06
2022-08-20T09:57:06.047Z,98339.41
2022-08-20T09:59:34.421Z,98341.75
2022-08-20T10:02:00.955Z,98345.25
2022-08-20T10:04:27.499Z,98345.41
2022-08-20T10:06:54.223Z,98351.97
2022-08-20T10:09:20.866Z,98339.59
2022-08-20T10:11:47.432Z,98338.91
2022-08-20T10:14:14.055Z,98340.03
2022-08-20T10:16:40.719Z,98348.31
2022-08-20T10:19:07.291Z,98350.28
2022-08-20T10:21:38.466Z,98347.69
2022-08-20T10:24:05.534Z,98346.84
2022-08-20T10:26:32.251Z,98348.03
2022-08-20T10:28:58.742Z,98350.06
2022-08-20T10:31:25.427Z,98348.19
2022-08-20T10:33:51.998Z,98356.97
2022-08-20T10:36:18.569Z,98351.72
2022-08-20T10:38:45.596Z,98343.66
2022-08-20T10:41:12.599Z,98343.69
2022-08-20T10:43:39.215Z,98340.03
2022-08-20T10:46:06.167Z,98345.31
2022-08-20T10:48:32.895Z,98347.13
2022-08-20T10:50:59.573Z,98343.72
2022-08-20T10:53:26.213Z,98345.06
2022-08-20T10:55:54.459Z,98355.28
2022-08-20T10:58:23.991Z,98347.31
2022-08-20T11:00:51.650Z,98350.25
2022-08-20T11:03:18.384Z,98356.94
2022-08-20T11:05:45.565Z,98356.72
2022-08-20T11:08:12.237Z,98357.03
2022-08-20T11:10:40.314Z,98350.81
2022-08-20T11:13:08.294Z,98356.78
2022-08-20T11:15:38.641Z,98353.31
2022-08-20T11:18:05.900Z,98354.94
2022-08-20T11:20:32.801Z,98355.44
2022-08-20T11:23:00.005Z,98352.41
2022-08-20T11:25:27.487Z,98354.63
2022-08-20T11:27:55.825Z,98346.41
2022-08-20T11:30:29.713Z,98341.97
2022-08-20T11:32:57.529Z,98342.81
2022-08-20T11:35:42.278Z,98355.50
2022-08-20T11:38:12.330Z,98346.69
2022-08-20T11:40:39.202Z,98352.53
2022-08-20T11:43:15.235Z,98349.91
2022-08-20T11:45:45.103Z,98339.47
2022-08-20T11:48:11.791Z,98349.97
2022-08-20T11:50:38.553Z,98347.94
2022-08-20T11:53:05.141Z,98343.94
2022-08-20T11:55:32.561Z,98351.97
2022-08-20T11:58:00.179Z,98350.13
2022-08-20T12:00:32.323Z,98358.25
2022-08-20T12:03:05.500Z,98350.84
2022-08-20T12:05:35.197Z,98352.03
2022-08-20T12:08:02.198Z,98352.13
2022-08-20T12:10:30.285Z,98355.06
2022-08-20T12:12:57.225Z,98355.28
2022-08-20T12:15:25.462Z,98358.88
2022-08-20T12:17:52.274Z,98361.69
2022-08-20T12:20:19.191Z,98366.03
2022-08-20T12:22:45.762Z,98375.59
2022-08-20T12:25:13.422Z,98378.06
2022-08-20T12:27:41.199Z,98373.72
2022-08-20T12:30:12.010Z,98374.50
2022-08-20T12:32:38.915Z,98377.88
2022-08-20T12:35:07.685Z,98374.81
2022-08-20T12:37:35.018Z,98373.13
2022-08-20T12:40:04.908Z,98372.09
2022-08-20T12:42:31.770Z,98363.91
2022-08-20T12:44:59.108Z,98375.72
2022-08-20T12:47:28.706Z,98379.53
2022-08-20T12:50:01.058Z,98378.84
2022-08-20T12:52:29.073Z,98376.25
2022-08-20T12:54:56.527Z,98383.13
2022-08-20T12:57:24.645Z,98383.47
2022-08-20T12:59:51.452Z,98385.84
2022-08-20T13:02:18.821Z,98375.81
2022-08-20T13:04:46.066Z,98377.44
2022-08-20T13:07:13.780Z,98372.47
2022-08-20T13:09:41.297Z,98372.63
2022-08-20T13:12:08.786Z,98372.19
2022-08-20T13:14:36.168Z,98373.06
2022-08-20T13:17:03.827Z,98376.09
2022-08-20T13:19:35.526Z,98373.25
2022-08-20T13:22:02.522Z,98373.00
2022-08-20T13:24:29.532Z,98366.06
2022-08-20T13:27:07.653Z,98374.72
2022-08-20T13:29:34.627Z,98370.88
2022-08-20T13:32:01.674Z,98371.66
2022-08-20T13:34:28.452Z,98374.06
2022-08-20T13:36:55.604Z,98379.22
2022-08-20T13:39:24.345Z,98375.31
2022-08-20T13:41:51.031Z,98367.41
2022-08-20T13:44:17.599Z,98364.72
2022-08-20T13:46:44.296Z,98369.19
2022-08-20T13:49:10.886Z,98363.84
2022-08-20T13:51:37.548Z,98366.78
2022-08-20T13:54:04.438Z,98372.78
2022-08-20T13:56:31.268Z,98375.53
2022-08-20T13:58:57.852Z,98376.13
2022-08-20T14:01:24.455Z,98375.41
2022-08-20T14:03:51.452Z,98371.38
2022-08-20T14:06:18.500Z,98373.22
2022-08-20T14:08:45.077Z,98375.56
2022-08-20T14:11:13.862Z,98378.25
2022-08-20T14:13:44.365Z,98377.41
2022-08-20T14:16:27.208Z,98376.81
2022-08-20T14:18:56.359Z,98378.16
2022-08-20T14:21:23.146Z,98379.97
2022-08-20T14:23:49.678Z,98374.00
2022-08-20T14:26:16.232Z,98375.09
2022-08-20T14:28:42.927Z,98372.38
2022-08-20T14:31:09.508Z,98368.00
2022-08-20T14:33:36.473Z,98366.56
2022-08-20T14:36:04.249Z,98368.47
2022-08-20T14:38:30.753Z,98359.44
2022-08-20T14:40:57.700Z,98359.78
2022-08-20T14:43:24.128Z,98351.72
2022-08-20T14:45:50.694Z,98349.38
2022-08-20T14:48:17.285Z,98347.75
2022-08-20T14:50:44.063Z,98351.88
2022-08-20T14:53:10.635Z,98343.13
2022-08-20T14:55:38.110Z,98343.59
2022-08-20T14:58:09.428Z,98334.22
2022-08-20T15:00:36.413Z,98337.38
2022-08-20T15:03:03.043Z,98334.09
2022-08-20T15:05:30.299Z,98333.59
2022-08-20T15:07:58.142Z,98340.19
2022-08-20T15:10:31.338Z,98347.34
2022-08-20T15:12:58.882Z,98339.84
2022-08-20T15:15:26.401Z,98340.44
2022-08-20T15:17:55.755Z,98339.84
2022-08-20T15:20:26.605Z,98347.69
2022-08-20T15:22:54.289Z,98362.69
2022-08-20T15:25:23.802Z,98349.47
2022-08-20T15:27:50.664Z,98348.13
2022-08-20T15:30:21.124Z,98350.25
2022-08-20T15:32:52.724Z,98357.66
2022-08-20T15:35:23.048Z,98355.63
2022-08-20T15:37:50.472Z,98368.34
2022-08-20T15:40:27.103Z,98363.69
2022-08-20T15:42:54.692Z,98364.94
2022-08-20T15:45:21.550Z,98364.06
2022-08-20T15:47:51.449Z,98368.28
2022-08-20T15:50:33.231Z,98364.75
2022-08-20T15:53:09.797Z,98369.78
2022-08-20T15:55:42.348Z,98366.63
2022-08-20T15:58:24.003Z,98359.78
2022-08-20T16:01:24.217Z,98372.50
2022-08-20T16:04:26.232Z,98381.91
2022-08-20T16:06:57.669Z,98380.09
2022-08-20T16:09:53.214Z,98388.03
2022-08-20T16:12:32.856Z,98384.38
2022-08-20T16:15:09.556Z,98388.78
2022-08-20T16:18:03.018Z,98388.28
2022-08-20T16:20:48.931Z,98395.84
2022-08-20T16:23:19.679Z,98404.66
2022-08-20T16:26:24.690Z,98403.31
2022-08-20T16:29:17.472Z,98410.63
2022-08-20T16:31:53.570Z,98405.84
2022-08-20T16:34:33.289Z,98415.22
2022-08-20T16:37:34.000Z,98422.84
2022-08-20T16:40:03.468Z,98416.97
2022-08-20T16:42:37.601Z,98424.28
2022-08-20T16:45:07.384Z,98428.94
2022-08-20T16:47:36.371Z,98425.47
2022-08-20T16:50:16.153Z,98425.94
2022-08-20T16:52:45.238Z,98419.53
2022-08-20T16:55:13.096Z,98422.16
2022-08-20T16:57:39.953Z,98416.88
2022-08-20T17:00:35.486Z,98409.00
2022-08-20T17:03:04.666Z,98420.22
2022-08-20T17:05:48.366Z,98418.63
2022-08-20T17:08:42.068Z,98423.84
2022-08-20T17:11:27.218Z,98414.13
2022-08-20T17:14:08.126Z,98415.09
2022-08-20T17:16:48.086Z,98420.22
2022-08-20T17:19:31.302Z,98416.50
2022-08-20T17:22:12.805Z,98417.69
2022-08-20T17:24:40.283Z,98422.97
2022-08-20T17:27:13.545Z,98430.91
2022-08-20T17:30:05.380Z,98431.88
2022-08-20T17:32:32.105Z,98432.41
2022-08-20T17:35:01.310Z,98434.22
2022-08-20T17:37:33.401Z,98438.19
2022-08-20T17:40:19.943Z,98439.03
2022-08-20T17:43:09.754Z,98446.09
2022-08-20T17:45:44.774Z,98434.97
2022-08-20T17:48:20.180Z,98444.16
2022-08-20T17:50:46.762Z,98438.63
2022-08-20T17:53:23.313Z,98430.06
2022-08-20T17:55:53.778Z,98437.56
2022-08-20T17:58:23.944Z,98431.66
2022-08-20T18:00:50.529Z,98430.91
2022-08-20T18:03:22.097Z,98439.56
2022-08-20T18:05:58.565Z,98440.31
2022-08-20T18:08:31.241Z,98435.28
2022-08-20T18:11:18.068Z,98446.66
2022-08-20T18:14:00.642Z,98447.19
2022-08-20T18:16:39.415Z,98445.47
2022-08-20T18:19:37.718Z,98456.38
2022-08-20T18:22:11.648Z,98459.78
2022-08-20T18:25:07.539Z,98452.91
2022-08-20T18:27:42.632Z,98458.56
2022-08-20T18:30:27.176Z,98456.69
2022-08-20T18:33:08.936Z,98458.06
2022-08-20T18:35:46.242Z,98449.03
2022-08-20T18:38:22.080Z,98452.94
2022-08-20T18:40:54.490Z,98459.34
2022-08-20T18:43:30.608Z,98459.72
2022-08-20T18:46:09.814Z,98468.22
2022-08-20T18:48:36.846Z,98466.72
2022-08-20T18:51:07.879Z,98458.34
2022-08-20T18:53:35.254Z,98457.38
2022-08-20T18:56:09.148Z,98459.28
2022-08-20T18:58:50.105Z,98467.13
2022-08-20T19:01:19.296Z,98477.78
2022-08-20T19:03:49.834Z,98481.84
2022-08-20T19:06:40.405Z,98486.34
2022-08-20T19:09:20.688Z,98485.84
2022-08-20T19:11:47.255Z,98492.56
2022-08-20T19:14:38.937Z,98493.97
2022-08-20T19:17:13.246Z,98488.25
2022-08-20T19:19:39.915Z,98494.63
2022-08-20T19:22:07.358Z,98500.50
2022-08-20T19:24:35.643Z,98502.66
2022-08-20T19:27:08.289Z,98491.91
2022-08-20T19:29:47.347Z,98490.09
2022-08-20T19:32:26.217Z,98492.69
2022-08-20T19:35:02.656Z,98498.78
2022-08-20T19:37:39.849Z,98500.50
2022-08-20T19:40:22.171Z,98500.69
2022-08-20T19:42:51.745Z,98492.75
2022-08-20T19:45:36.701Z,98497.63
2022-08-20T19:48:18.823Z,98498.81
2022-08-20T19:51:22.039Z,98506.91
2022-08-20T19:53:49.777Z,98507.25
2022-08-20T19:56:23.314Z,98502.38
2022-08-20T19:59:07.694Z,98502.13
2022-08-20T20:01:35.467Z,98512.59
2022-08-20T20:04:05.963Z,98506.41
2022-08-20T20:06:37.380Z,98505.34
2022-08-20T20:09:07.625Z,98495.56
2022-08-20T20:11:44.403Z,98503.19
2022-08-20T20:14:13.443Z,98509.22
2022-08-20T20:16:41.054Z,98504.47
2022-08-20T20:19:27.703Z,98497.22
2022-08-20T20:22:08.541Z,98506.19
2022-08-20T20:24:56.896Z,98505.00
2022-08-20T20:27:26.191Z,98495.41
2022-08-20T20:29:59.758Z,98487.50
2022-08-20T20:32:27.731Z,98494.03
2022-08-20T20:34:58.052Z,98487.00
2022-08-20T20:37:49.063Z,98489.81
2022-08-20T20:40:30.558Z,98491.22
2022-08-20T20:43:09.100Z,98484.25
2022-08-20T20:45:40.367Z,98482.03
2022-08-20T20:48:18.673Z,98492.28
2022-08-20T20:50:47.382Z,98501.53
2022-08-20T20:53:24.953Z,98503.34
2022-08-20T20:56:05.339Z,98499.19
2022-08-20T20:58:31.834Z,98503.06
2022-08-20T21:00:58.335Z,98496.28
2022-08-20T21:03:25.001Z,98497.47
2022-08-20T21:05:52.425Z,98492.66
2022-08-20T21:08:19.653Z,98502.28
2022-08-20T21:10:46.738Z,98506.88
2022-08-20T21:13:13.839Z,98497.97
2022-08-20T21:15:40.498Z,98498.13
2022-08-20T21:18:09.196Z,98500.19
2022-08-20T21:20:36.157Z,98498.78
2022-08-20T21:23:03.413Z,98513.03
2022-08-20T21:25:32.315Z,98506.09
2022-08-20T21:27:59.354Z,98504.50
2022-08-20T21:30:26.470Z,98505.34
2022-08-20T21:32:53.427Z,98507.16
2022-08-20T21:35:20.605Z,98508.88
2022-08-20T21:37:47.146Z,98511.59
2022-08-20T21:40:14.667Z,98505.41
2022-08-20T21:42:44.868Z,98510.31
2022-08-20T21:45:15.090Z,98510.72
2022-08-20T21:47:46.875Z,98516.03
2022-08-20T21:50:18.537Z,98505.19
2022-08-20T21:52:55.347Z,98514.78
2022-08-20T21:55:28.127Z,98512.13
2022-08-20T21:57:54.875Z,98504.16
2022-08-20T22:00:50.316Z,98505.09
2022-08-20T22:03:20.112Z,98504.50
2022-08-20T22:05:47.520Z,98507.22
2022-08-20T22:08:14.274Z,98505.59
2022-08-20T22:10:40.997Z,98506.63
2022-08-20T22:13:07.970Z,98501.59
2022-08-20T22:15:34.645Z,98505.81
2022-08-20T22:18:01.280Z,98504.28
2022-08-20T22:20:28.893Z,98506.06
2022-08-20T22:22:55.430Z,98504.31
2022-08-20T22:25:22.291Z,98500.25
2022-08-20T22:27:49.016Z,98495.44
2022-08-20T22:30:15.717Z,98499.00
2022-08-20T22:32:52.319Z,98497.16
2022-08-20T22:35:19.670Z,98501.03
2022-08-20T22:37:46.433Z,98497.44
2022-08-20T22:40:13.081Z,98494.00
2022-08-20T22:42:39.739Z,98501.03
2022-08-20T22:45:11.562Z,98498.47
2022-08-20T22:47:42.324Z,98495.50
2022-08-20T22:50:10.326Z,98503.72
2022-08-20T22:52:39.513Z,98498.09
2022-08-20T22:55:07.076Z,98506.44
2022-08-20T22:57:36.961Z,98513.56
2022-08-20T23:00:09.393Z,98504.94
2022-08-20T23:02:36.253Z,98510.44
2022-08-20T23:05:03.288Z,98509.78
2022-08-20T23:07:30.310Z,98513.47
2022-08-20T23:09:56.881Z,98517.06
2022-08-20T23:12:24.208Z,98510.88
2022-08-20T23:14:52.683Z,98508.28
2022-08-20T23:17:20.073Z,98510.88
2022-08-20T23:19:48.552Z,98510.09
2022-08-20T23:22:16.499Z,98506.84
2022-08-20T23:24:43.132Z,98501.97
2022-08-20T23:27:14.403Z,98507.22
2022-08-20T23:29:41.446Z,98507.13
2022-08-20T23:32:08.821Z,98494.78
2022-08-20T23:34:35.412Z,98512.75
2022-08-20T23:37:02.708Z,98508.44
2022-08-20T23:39:29.659Z,98504.16
2022-08-20T23:41:56.275Z,98499.84
2022-08-20T23:44:26.333Z,98498.84
2022-08-20T23:46:59.665Z,98500.31
2022-08-20T23:49:27.407Z,98498.00
2022-08-20T23:51:54.136Z,98502.19
2022-08-20T23:54:21.056Z,98500.84
2022-08-20T23:56:47.796Z,98491.63
2022-08-20T23:59:14.320Z,98489.28
